createdAt,value
2019-03-26T00:00:47.635Z,2.67
2019-03-26T00:03:16.418Z,3.37
2019-03-26T00:05:45.240Z,2.80
2019-03-26T00:08:14.008Z,2.63
2019-03-26T00:10:42.812Z,2.70
2019-03-26T00:13:11.606Z,3.23
2019-03-26T00:15:40.414Z,2.87
2019-03-26T00:18:09.119Z,2.97
2019-03-26T00:20:38.051Z,3.53
2019-03-26T00:23:06.835Z,3.27
2019-03-26T00:25:35.581Z,3.50
2019-03-26T00:28:04.371Z,2.93
2019-03-26T00:30:33.085Z,2.70
2019-03-26T00:33:01.827Z,2.77
2019-03-26T00:35:30.708Z,2.40
2019-03-26T00:37:59.440Z,3.53
2019-03-26T00:40:28.163Z,2.97
2019-03-26T00:42:56.868Z,2.77
2019-03-26T00:45:25.663Z,2.50
2019-03-26T00:47:54.482Z,2.37
2019-03-26T00:50:23.206Z,3.67
2019-03-26T00:52:52.054Z,2.60
2019-03-26T00:55:22.981Z,3.73
2019-03-26T00:57:51.247Z,2.40
2019-03-26T01:00:37.127Z,3.30
2019-03-26T01:03:06.206Z,2.90
2019-03-26T01:05:35.126Z,2.97
2019-03-26T01:08:04.150Z,2.50
2019-03-26T01:10:33.213Z,2.67
2019-03-26T01:13:01.932Z,2.73
2019-03-26T01:15:30.650Z,2.67
2019-03-26T01:17:59.450Z,2.33
2019-03-26T01:20:28.170Z,2.67
2019-03-26T01:22:56.966Z,2.80
2019-03-26T01:25:25.735Z,2.57
2019-03-26T01:27:54.541Z,3.23
2019-03-26T01:30:23.251Z,3.30
2019-03-26T01:32:52.049Z,3.30
2019-03-26T01:35:20.761Z,3.07
2019-03-26T01:37:49.485Z,3.60
2019-03-26T01:40:18.193Z,3.50
2019-03-26T01:42:47.000Z,3.13
2019-03-26T01:45:15.842Z,3.23
2019-03-26T01:47:44.581Z,2.53
2019-03-26T01:50:13.545Z,2.40
2019-03-26T01:52:42.276Z,2.87
2019-03-26T01:55:11.117Z,3.70
2019-03-26T01:57:39.954Z,2.90
2019-03-26T02:00:08.810Z,2.90
2019-03-26T02:02:37.620Z,3.80
2019-03-26T02:05:06.573Z,3.27
2019-03-26T02:07:35.283Z,3.20
2019-03-26T02:10:04.725Z,3.10
2019-03-26T02:12:33.560Z,3.20
2019-03-26T02:15:02.734Z,2.73
2019-03-26T02:17:31.594Z,3.90
2019-03-26T02:20:00.387Z,3.40
2019-03-26T02:22:29.108Z,3.40
2019-03-26T02:24:57.845Z,3.10
2019-03-26T02:27:26.559Z,2.70
2019-03-26T02:29:55.314Z,4.03
2019-03-26T02:32:24.153Z,3.43
2019-03-26T02:34:52.882Z,2.90
2019-03-26T02:37:21.714Z,3.07
2019-03-26T02:39:50.463Z,3.47
2019-03-26T02:42:19.172Z,3.10
2019-03-26T02:44:47.907Z,2.93
2019-03-26T02:47:16.615Z,3.43
2019-03-26T02:49:45.415Z,2.53
2019-03-26T02:52:14.202Z,3.10
2019-03-26T02:54:42.959Z,2.10
2019-03-26T02:57:11.749Z,2.20
2019-03-26T02:59:40.559Z,2.40
2019-03-26T03:02:09.399Z,2.93
2019-03-26T03:04:38.177Z,2.93
2019-03-26T03:07:06.998Z,2.50
2019-03-26T03:09:35.802Z,3.00
2019-03-26T03:12:04.507Z,2.60
2019-03-26T03:14:33.208Z,2.60
2019-03-26T03:17:02.007Z,2.73
2019-03-26T03:19:30.793Z,2.10
2019-03-26T03:21:59.572Z,3.40
2019-03-26T03:24:28.324Z,2.90
2019-03-26T03:26:57.211Z,2.30
2019-03-26T03:29:25.929Z,2.47
2019-03-26T03:31:54.819Z,2.60
2019-03-26T03:34:23.529Z,2.67
2019-03-26T03:36:52.250Z,2.53
2019-03-26T03:39:21.057Z,2.60
2019-03-26T03:41:49.944Z,2.50
2019-03-26T03:44:18.725Z,2.70
2019-03-26T03:46:49.097Z,2.77
2019-03-26T03:49:21.196Z,2.57
2019-03-26T03:51:51.375Z,2.23
2019-03-26T03:54:21.173Z,2.90
2019-03-26T03:56:52.988Z,2.20
2019-03-26T03:59:23.215Z,2.47
2019-03-26T04:01:52.009Z,2.27
2019-03-26T04:04:20.715Z,2.23
2019-03-26T04:06:49.503Z,2.57
2019-03-26T04:09:18.226Z,2.70
2019-03-26T04:11:47.030Z,2.30
2019-03-26T04:14:15.829Z,2.80
2019-03-26T04:16:44.770Z,3.17
2019-03-26T04:19:13.556Z,2.53
2019-03-26T04:21:42.262Z,2.53
2019-03-26T04:24:11.080Z,5.03
2019-03-26T04:26:39.874Z,2.90
2019-03-26T04:29:08.729Z,2.83
2019-03-26T04:31:37.457Z,3.27
2019-03-26T04:34:06.281Z,2.80
2019-03-26T04:36:35.049Z,2.80
2019-03-26T04:39:05.355Z,2.90
2019-03-26T04:41:34.213Z,2.53
2019-03-26T04:44:03.157Z,2.63
2019-03-26T04:46:31.871Z,3.00
2019-03-26T04:49:00.825Z,3.17
2019-03-26T04:51:29.612Z,3.43
2019-03-26T04:53:58.344Z,3.20
2019-03-26T04:56:27.061Z,3.43
2019-03-26T04:58:55.852Z,3.23
2019-03-26T05:01:24.666Z,3.00
2019-03-26T05:03:53.419Z,4.20
2019-03-26T05:06:22.155Z,4.47
2019-03-26T05:08:50.867Z,4.67
2019-03-26T05:11:19.741Z,4.00
2019-03-26T05:13:48.518Z,3.60
2019-03-26T05:16:17.250Z,4.13
2019-03-26T05:18:46.027Z,3.57
2019-03-26T05:21:14.765Z,3.80
2019-03-26T05:23:43.476Z,3.40
2019-03-26T05:26:12.196Z,3.40
2019-03-26T05:28:40.900Z,3.40
2019-03-26T05:31:09.681Z,4.30
2019-03-26T05:33:38.398Z,3.20
2019-03-26T05:36:07.204Z,3.17
2019-03-26T05:38:35.915Z,3.10
2019-03-26T05:41:04.794Z,3.53
2019-03-26T05:43:33.577Z,3.67
2019-03-26T05:46:02.394Z,3.20
2019-03-26T05:48:31.322Z,3.13
2019-03-26T05:51:00.138Z,2.70
2019-03-26T05:53:28.866Z,2.80
2019-03-26T05:55:57.595Z,3.03
2019-03-26T05:58:26.410Z,2.53
2019-03-26T06:00:55.258Z,3.50
2019-03-26T06:03:23.988Z,3.43
2019-03-26T06:05:52.794Z,3.27
2019-03-26T06:08:21.731Z,2.97
2019-03-26T06:10:50.541Z,3.57
2019-03-26T06:13:19.342Z,3.03
2019-03-26T06:15:48.215Z,3.37
2019-03-26T06:18:17.083Z,2.73
2019-03-26T06:20:45.812Z,3.33
2019-03-26T06:23:14.683Z,3.10
2019-03-26T06:25:43.651Z,3.47
2019-03-26T06:28:12.461Z,3.17
2019-03-26T06:30:41.255Z,3.63
2019-03-26T06:33:10.023Z,3.73
2019-03-26T06:35:38.810Z,3.30
2019-03-26T06:38:07.590Z,3.13
2019-03-26T06:40:36.451Z,4.70
2019-03-26T06:43:05.365Z,3.87
2019-03-26T06:45:34.140Z,3.20
2019-03-26T06:48:04.520Z,2.80
2019-03-26T06:50:33.490Z,3.13
2019-03-26T06:53:02.210Z,2.93
2019-03-26T06:55:30.917Z,3.30
2019-03-26T06:57:59.733Z,2.80
2019-03-26T07:00:32.909Z,3.33
2019-03-26T07:03:03.377Z,2.60
2019-03-26T07:05:32.232Z,3.03
2019-03-26T07:08:01.163Z,3.67
2019-03-26T07:10:30.184Z,3.10
2019-03-26T07:12:58.974Z,3.83
2019-03-26T07:15:27.768Z,4.30
2019-03-26T07:17:56.554Z,3.50
2019-03-26T07:20:25.365Z,3.83
2019-03-26T07:22:54.225Z,3.43
2019-03-26T07:25:23.185Z,3.63
2019-03-26T07:27:51.962Z,4.50
2019-03-26T07:30:37.421Z,3.50
2019-03-26T07:33:06.262Z,4.73
2019-03-26T07:35:35.130Z,3.67
2019-03-26T07:38:04.062Z,3.60
2019-03-26T07:40:32.977Z,3.50
2019-03-26T07:43:01.760Z,3.43
2019-03-26T07:45:30.749Z,4.53
2019-03-26T07:47:59.623Z,4.33
2019-03-26T07:50:28.518Z,3.53
2019-03-26T07:52:57.430Z,4.70
2019-03-26T07:55:26.172Z,4.57
2019-03-26T07:57:54.927Z,3.93
2019-03-26T08:00:34.946Z,3.20
2019-03-26T08:03:04.031Z,3.90
2019-03-26T08:05:32.945Z,4.30
2019-03-26T08:08:01.851Z,3.77
2019-03-26T08:10:30.710Z,4.73
2019-03-26T08:13:02.403Z,3.57
2019-03-26T08:15:31.270Z,3.30
2019-03-26T08:18:00.118Z,3.73
2019-03-26T08:20:30.424Z,3.67
2019-03-26T08:22:59.379Z,3.60
2019-03-26T08:25:28.232Z,3.87
2019-03-26T08:27:57.113Z,3.13
2019-03-26T08:30:25.896Z,4.17
2019-03-26T08:32:54.720Z,2.63
2019-03-26T08:35:23.446Z,2.93
2019-03-26T08:37:52.160Z,3.03
2019-03-26T08:40:23.424Z,3.70
2019-03-26T08:42:51.457Z,4.23
2019-03-26T08:45:20.311Z,3.90
2019-03-26T08:47:49.060Z,3.80
2019-03-26T08:50:18.418Z,3.30
2019-03-26T08:52:47.151Z,2.40
2019-03-26T08:55:15.864Z,3.13
2019-03-26T08:57:44.653Z,3.50
2019-03-26T09:00:13.675Z,3.63
2019-03-26T09:02:42.421Z,2.90
2019-03-26T09:05:11.489Z,3.73
2019-03-26T09:07:40.258Z,3.07
2019-03-26T09:10:10.304Z,2.77
2019-03-26T09:12:39.695Z,3.40
2019-03-26T09:15:09.261Z,3.67
2019-03-26T09:17:39.022Z,2.73
2019-03-26T09:20:09.066Z,3.67
2019-03-26T09:22:37.941Z,3.10
2019-03-26T09:25:08.117Z,2.80
2019-03-26T09:27:36.844Z,2.87
2019-03-26T09:30:08.467Z,4.17
2019-03-26T09:32:37.423Z,3.17
2019-03-26T09:35:07.777Z,5.80
2019-03-26T09:37:36.617Z,3.83
2019-03-26T09:40:09.568Z,3.27
2019-03-26T09:42:38.446Z,3.20
2019-03-26T09:45:09.362Z,2.53
2019-03-26T09:47:38.203Z,3.30
2019-03-26T09:50:08.764Z,2.97
2019-03-26T09:52:37.611Z,2.57
2019-03-26T09:55:08.358Z,2.97
2019-03-26T09:57:37.062Z,2.80
2019-03-26T10:00:07.939Z,3.33
2019-03-26T10:02:36.703Z,2.90
2019-03-26T10:05:06.164Z,2.90
2019-03-26T10:07:34.871Z,3.30
2019-03-26T10:10:06.176Z,2.57
2019-03-26T10:12:34.946Z,2.90
2019-03-26T10:15:07.874Z,2.60
2019-03-26T10:17:37.043Z,2.87
2019-03-26T10:20:07.020Z,2.60
2019-03-26T10:22:36.671Z,3.40
2019-03-26T10:25:10.458Z,2.50
2019-03-26T10:27:37.813Z,2.60
2019-03-26T10:30:08.014Z,3.00
2019-03-26T10:32:37.124Z,3.63
2019-03-26T10:35:06.410Z,2.40
2019-03-26T10:37:35.120Z,2.97
2019-03-26T10:40:05.683Z,2.73
2019-03-26T10:42:34.663Z,2.80
2019-03-26T10:45:06.181Z,2.60
2019-03-26T10:47:34.920Z,2.63
2019-03-26T10:50:05.176Z,2.00
2019-03-26T10:52:34.356Z,2.90
2019-03-26T10:55:05.043Z,2.23
2019-03-26T10:57:34.890Z,2.77
2019-03-26T11:00:05.767Z,2.73
2019-03-26T11:02:34.649Z,3.27
2019-03-26T11:05:05.480Z,2.73
2019-03-26T11:07:34.373Z,3.30
2019-03-26T11:10:05.292Z,3.30
2019-03-26T11:12:34.094Z,2.90
2019-03-26T11:15:04.623Z,4.00
2019-03-26T11:17:33.401Z,2.93
2019-03-26T11:20:02.270Z,3.30
2019-03-26T11:22:31.215Z,3.00
2019-03-26T11:24:59.954Z,3.90
2019-03-26T11:27:29.023Z,2.73
2019-03-26T11:29:57.872Z,2.90
2019-03-26T11:32:26.754Z,2.70
2019-03-26T11:34:55.586Z,2.60
2019-03-26T11:37:25.092Z,3.00
2019-03-26T11:39:53.888Z,4.37
2019-03-26T11:42:22.801Z,3.10
2019-03-26T11:44:51.695Z,3.27
2019-03-26T11:47:20.564Z,3.20
2019-03-26T11:49:49.397Z,2.80
2019-03-26T11:52:18.285Z,3.33
2019-03-26T11:54:47.126Z,3.13
2019-03-26T11:57:15.910Z,2.80
2019-03-26T11:59:45.543Z,3.10
2019-03-26T12:02:14.378Z,2.13
2019-03-26T12:04:43.254Z,2.10
2019-03-26T12:07:11.976Z,3.10
2019-03-26T12:09:46.464Z,2.70
2019-03-26T12:12:11.449Z,2.97
2019-03-26T12:14:40.774Z,2.00
2019-03-26T12:17:09.622Z,2.50
2019-03-26T12:19:38.542Z,3.13
2019-03-26T12:22:07.482Z,2.60
2019-03-26T12:24:36.396Z,2.37
2019-03-26T12:27:05.212Z,3.20
2019-03-26T12:29:34.095Z,3.03
2019-03-26T12:32:02.983Z,2.70
2019-03-26T12:34:31.800Z,2.70
2019-03-26T12:37:00.538Z,3.10
2019-03-26T12:39:29.425Z,3.07
2019-03-26T12:41:58.321Z,2.47
2019-03-26T12:44:27.170Z,3.23
2019-03-26T12:46:58.318Z,2.27
2019-03-26T12:49:26.509Z,2.70
2019-03-26T12:51:55.485Z,2.40
2019-03-26T12:54:25.317Z,2.83
2019-03-26T12:56:54.262Z,2.43
2019-03-26T12:59:23.043Z,2.87
2019-03-26T13:01:51.951Z,2.60
2019-03-26T13:04:20.832Z,3.23
2019-03-26T13:06:49.766Z,2.83
2019-03-26T13:09:18.688Z,2.70
2019-03-26T13:11:47.512Z,2.47
2019-03-26T13:14:16.370Z,3.47
2019-03-26T13:16:45.253Z,3.30
2019-03-26T13:19:14.011Z,3.30
2019-03-26T13:21:42.825Z,3.37
2019-03-26T13:24:11.755Z,4.53
2019-03-26T13:26:40.746Z,3.47
2019-03-26T13:29:09.578Z,3.97
2019-03-26T13:31:38.387Z,3.73
2019-03-26T13:34:07.370Z,3.90
2019-03-26T13:36:36.086Z,4.20
2019-03-26T13:39:07.340Z,4.27
2019-03-26T13:41:36.364Z,3.83
2019-03-26T13:44:05.396Z,3.93
2019-03-26T13:46:34.198Z,4.07
2019-03-26T13:49:03.168Z,3.90
2019-03-26T13:51:32.027Z,4.30
2019-03-26T13:54:00.981Z,3.90
2019-03-26T13:56:29.768Z,3.97
2019-03-26T13:58:58.510Z,4.53
2019-03-26T14:01:27.304Z,4.00
2019-03-26T14:03:56.064Z,3.73
2019-03-26T14:06:24.943Z,3.67
2019-03-26T14:08:53.851Z,4.30
2019-03-26T14:11:22.578Z,4.00
2019-03-26T14:13:51.413Z,3.90
2019-03-26T14:16:20.198Z,4.27
2019-03-26T14:18:49.080Z,4.20
2019-03-26T14:21:18.036Z,4.87
2019-03-26T14:23:46.928Z,4.47
2019-03-26T14:26:15.934Z,4.00
2019-03-26T14:28:44.705Z,4.67
2019-03-26T14:31:13.532Z,4.60
2019-03-26T14:33:42.336Z,3.90
2019-03-26T14:36:11.238Z,3.63
2019-03-26T14:38:40.315Z,3.53
2019-03-26T14:41:09.206Z,3.30
2019-03-26T14:43:38.203Z,3.53
2019-03-26T14:46:07.160Z,3.13
2019-03-26T14:48:36.162Z,2.87
2019-03-26T14:51:05.274Z,3.27
2019-03-26T14:53:34.283Z,3.77
2019-03-26T14:56:03.353Z,3.97
2019-03-26T14:58:32.435Z,4.07
2019-03-26T15:01:01.413Z,3.40
2019-03-26T15:03:30.381Z,3.60
2019-03-26T15:05:59.455Z,3.87
2019-03-26T15:08:28.439Z,3.40
2019-03-26T15:11:07.477Z,3.27
2019-03-26T15:13:28.283Z,4.33
2019-03-26T15:15:57.309Z,3.70
2019-03-26T15:18:26.370Z,3.70
2019-03-26T15:20:55.326Z,4.13
2019-03-26T15:23:24.333Z,4.50
2019-03-26T15:25:53.324Z,3.67
2019-03-26T15:28:22.245Z,4.33
2019-03-26T15:30:51.119Z,3.70
2019-03-26T15:33:20.023Z,3.47
2019-03-26T15:35:48.822Z,3.93
2019-03-26T15:38:17.724Z,3.10
2019-03-26T15:40:46.761Z,2.63
2019-03-26T15:43:16.295Z,2.73
2019-03-26T15:45:45.229Z,2.70
2019-03-26T15:48:15.170Z,2.63
2019-03-26T15:50:45.429Z,2.77
2019-03-26T15:53:14.704Z,3.30
2019-03-26T15:55:43.556Z,2.90
2019-03-26T15:58:12.465Z,2.90
2019-03-26T16:00:41.472Z,3.03
2019-03-26T16:03:10.477Z,2.60
2019-03-26T16:05:39.449Z,3.23
2019-03-26T16:08:08.369Z,3.00
2019-03-26T16:10:37.169Z,2.80
2019-03-26T16:13:05.995Z,3.40
2019-03-26T16:15:44.247Z,2.90
2019-03-26T16:18:05.382Z,2.87
2019-03-26T16:20:34.211Z,3.20
2019-03-26T16:23:03.041Z,3.47
2019-03-26T16:25:31.920Z,3.07
2019-03-26T16:28:00.640Z,2.60
2019-03-26T16:30:30.738Z,2.93
2019-03-26T16:33:02.817Z,3.30
2019-03-26T16:35:31.780Z,3.53
2019-03-26T16:38:03.373Z,3.03
2019-03-26T16:40:32.172Z,3.20
2019-03-26T16:43:00.904Z,3.10
2019-03-26T16:45:29.664Z,3.10
2019-03-26T16:47:58.602Z,3.50
2019-03-26T16:50:27.543Z,3.33
2019-03-26T16:52:56.276Z,2.97
2019-03-26T16:55:25.259Z,3.00
2019-03-26T16:57:53.963Z,3.67
2019-03-26T17:00:30.117Z,3.40
2019-03-26T17:02:59.579Z,3.30
2019-03-26T17:05:28.456Z,3.03
2019-03-26T17:07:57.257Z,3.43
2019-03-26T17:10:27.470Z,3.20
2019-03-26T17:12:56.270Z,3.43
2019-03-26T17:15:25.159Z,3.83
2019-03-26T17:17:53.957Z,3.27
2019-03-26T17:20:24.170Z,3.20
2019-03-26T17:22:53.202Z,3.50
2019-03-26T17:25:22.033Z,3.67
2019-03-26T17:27:50.830Z,3.13
2019-03-26T17:30:21.188Z,3.83
2019-03-26T17:32:49.982Z,3.73
2019-03-26T17:35:18.847Z,3.90
2019-03-26T17:37:59.066Z,3.87
2019-03-26T17:40:18.385Z,3.93
2019-03-26T17:42:47.256Z,3.37
2019-03-26T17:45:16.147Z,3.93
2019-03-26T17:47:45.265Z,4.83
2019-03-26T17:50:14.081Z,4.37
2019-03-26T17:52:42.818Z,3.97
2019-03-26T17:55:12.389Z,3.60
2019-03-26T17:57:42.434Z,4.30
2019-03-26T18:00:14.186Z,3.30
2019-03-26T18:02:43.139Z,3.00
2019-03-26T18:05:26.046Z,3.40
2019-03-26T18:07:55.110Z,3.87
2019-03-26T18:10:24.035Z,3.23
2019-03-26T18:12:53.005Z,3.47
2019-03-26T18:15:21.964Z,3.80
2019-03-26T18:17:50.997Z,3.73
2019-03-26T18:20:32.006Z,3.20
2019-03-26T18:22:50.423Z,3.20
2019-03-26T18:25:19.374Z,3.13
2019-03-26T18:27:48.398Z,3.30
2019-03-26T18:30:17.451Z,3.93
2019-03-26T18:32:46.395Z,4.03
2019-03-26T18:35:15.254Z,4.07
2019-03-26T18:37:44.206Z,3.73
2019-03-26T18:40:13.194Z,4.03
2019-03-26T18:42:44.269Z,3.90
2019-03-26T18:45:13.073Z,4.60
2019-03-26T18:47:41.906Z,4.13
2019-03-26T18:50:10.983Z,4.20
2019-03-26T18:52:39.886Z,3.47
2019-03-26T18:55:09.374Z,3.30
2019-03-26T18:57:38.440Z,3.70
2019-03-26T19:00:09.588Z,3.70
2019-03-26T19:02:38.394Z,3.67
2019-03-26T19:05:08.863Z,3.73
2019-03-26T19:07:37.849Z,3.97
2019-03-26T19:10:09.685Z,4.10
2019-03-26T19:12:38.474Z,3.30
2019-03-26T19:15:07.476Z,3.50
2019-03-26T19:17:36.448Z,4.40
2019-03-26T19:20:06.675Z,3.90
2019-03-26T19:22:35.609Z,3.30
2019-03-26T19:25:05.695Z,3.93
2019-03-26T19:27:34.861Z,3.57
2019-03-26T19:30:05.527Z,3.70
2019-03-26T19:32:34.407Z,3.60
2019-03-26T19:35:04.769Z,3.63
2019-03-26T19:37:33.671Z,3.67
2019-03-26T19:40:04.287Z,4.23
2019-03-26T19:42:33.183Z,4.57
2019-03-26T19:45:02.051Z,4.53
2019-03-26T19:47:31.019Z,4.67
2019-03-26T19:50:00.341Z,3.83
2019-03-26T19:52:29.470Z,4.30
2019-03-26T19:55:00.728Z,4.00
2019-03-26T19:57:28.804Z,4.67
2019-03-26T19:59:57.797Z,3.77
2019-03-26T20:02:26.632Z,4.87
2019-03-26T20:04:55.518Z,4.23
2019-03-26T20:07:24.362Z,6.00
2019-03-26T20:09:53.315Z,5.10
2019-03-26T20:12:22.143Z,5.17
2019-03-26T20:14:50.907Z,4.60
2019-03-26T20:17:19.897Z,4.70
2019-03-26T20:19:48.867Z,4.30
2019-03-26T20:22:17.724Z,4.63
2019-03-26T20:24:46.615Z,5.33
2019-03-26T20:27:15.504Z,4.80
2019-03-26T20:29:44.474Z,5.10
2019-03-26T20:32:14.242Z,5.33
2019-03-26T20:34:43.031Z,5.30
2019-03-26T20:37:11.967Z,5.55
2019-03-26T20:39:40.770Z,6.20
2019-03-26T20:42:09.721Z,5.87
2019-03-26T20:44:38.629Z,6.17
2019-03-26T20:47:07.448Z,7.07
2019-03-26T20:49:36.235Z,6.30
2019-03-26T20:52:05.511Z,6.20
2019-03-26T20:54:34.252Z,6.23
2019-03-26T20:57:03.193Z,6.67
2019-03-26T20:59:31.990Z,7.83
2019-03-26T21:02:00.812Z,6.50
2019-03-26T21:04:29.697Z,6.67
2019-03-26T21:06:58.493Z,6.60
2019-03-26T21:09:27.293Z,6.55
2019-03-26T21:11:56.161Z,7.07
2019-03-26T21:14:25.043Z,6.33
2019-03-26T21:16:53.754Z,7.03
2019-03-26T21:19:22.480Z,6.30
2019-03-26T21:21:53.042Z,6.37
2019-03-26T21:24:21.689Z,7.30
2019-03-26T21:26:50.414Z,6.90
2019-03-26T21:29:19.222Z,6.60
2019-03-26T21:31:47.994Z,8.67
2019-03-26T21:34:29.609Z,7.90
2019-03-26T21:36:47.201Z,8.43
2019-03-26T21:39:15.931Z,8.73
2019-03-26T21:44:50.681Z,8.67
2019-03-26T21:47:34.393Z,7.83
2019-03-26T21:50:18.585Z,7.90
2019-03-26T21:52:52.163Z,8.10
2019-03-26T21:55:21.178Z,8.13
2019-03-26T21:57:49.931Z,8.97
2019-03-26T22:00:18.840Z,8.37
2019-03-26T22:02:47.687Z,7.63
2019-03-26T22:05:16.583Z,7.33
2019-03-26T22:07:45.367Z,7.67
2019-03-26T22:10:14.958Z,6.90
2019-03-26T22:12:43.873Z,7.97
2019-03-26T22:15:14.147Z,7.90
2019-03-26T22:17:42.923Z,7.33
2019-03-26T22:20:11.791Z,8.53
2019-03-26T22:22:40.567Z,8.73
2019-03-26T22:25:11.069Z,7.80
2019-03-26T22:27:39.783Z,8.63
2019-03-26T22:30:10.793Z,8.17
2019-03-26T22:32:39.621Z,7.47
2019-03-26T22:35:08.839Z,7.90
2019-03-26T22:37:37.661Z,8.33
2019-03-26T22:40:07.690Z,8.33
2019-03-26T22:42:36.496Z,8.93
2019-03-26T22:45:07.034Z,9.20
2019-03-26T22:47:39.553Z,9.63
2019-03-26T22:50:09.435Z,9.20
2019-03-26T22:52:38.238Z,9.73
2019-03-26T22:55:07.991Z,9.13
2019-03-26T22:57:37.000Z,8.77
2019-03-26T23:00:14.857Z,9.40
2019-03-26T23:02:43.738Z,10.10
2019-03-26T23:05:18.958Z,8.30
2019-03-26T23:07:49.251Z,9.50
2019-03-26T23:10:19.619Z,8.97
2019-03-26T23:12:52.781Z,9.57
2019-03-26T23:15:23.596Z,9.60
2019-03-26T23:17:53.104Z,8.97
2019-03-26T23:20:22.579Z,9.20
2019-03-26T23:22:51.461Z,9.57
2019-03-26T23:25:20.895Z,10.93
2019-03-26T23:27:52.038Z,9.87
2019-03-26T23:30:21.264Z,9.73
2019-03-26T23:32:49.997Z,9.07
2019-03-26T23:35:18.867Z,9.23
2019-03-26T23:37:47.619Z,8.40
2019-03-26T23:40:16.593Z,8.73
2019-03-26T23:42:45.380Z,8.00
2019-03-26T23:45:15.811Z,9.03
2019-03-26T23:47:44.595Z,7.90
2019-03-26T23:50:14.475Z,8.27
2019-03-26T23:52:43.242Z,7.93
2019-03-26T23:55:12.215Z,8.33
2019-03-26T23:57:40.932Z,7.90
